sensor_id;sensor_type;location;lat;lon;timestamp;pressure;altitude;pressure_sealevel;temperature;humidity
56038;BME280;41907;47.848;9.000;2022-09-09T00:01:56;95538.16;;;12.39;100.00
56038;BME280;41907;47.848;9.000;2022-09-09T00:04:34;95539.81;;;12.22;100.00
56038;BME280;41907;47.848;9.000;2022-09-09T00:07:52;95542.25;;;12.07;100.00
56038;BME280;41907;47.848;9.000;2022-09-09T00:10:13;95541.34;;;11.94;100.00
56038;BME280;41907;47.848;9.000;2022-09-09T00:18:26;95534.78;;;11.74;100.00
56038;BME280;41907;47.848;9.000;2022-09-09T00:23:30;95534.03;;;11.65;100.00
56038;BME280;41907;47.848;9.000;2022-09-09T00:28:53;95533.25;;;11.65;100.00
56038;BME280;41907;47.848;9.000;2022-09-09T00:31:25;95527.13;;;11.64;100.00
56038;BME280;41907;47.848;9.000;2022-09-09T00:33:52;95533.09;;;11.70;100.00
56038;BME280;41907;47.848;9.000;2022-09-09T00:36:21;95535.63;;;11.57;100.00
56038;BME280;41907;47.848;9.000;2022-09-09T00:38:51;95544.44;;;11.49;100.00
56038;BME280;41907;47.848;9.000;2022-09-09T00:47:12;95519.25;;;11.68;100.00
56038;BME280;41907;47.848;9.000;2022-09-09T00:49:54;95533.53;;;11.80;100.00
56038;BME280;41907;47.848;9.000;2022-09-09T00:55:09;95531.47;;;11.86;100.00
56038;BME280;41907;47.848;9.000;2022-09-09T00:57:40;95531.16;;;11.87;100.00
56038;BME280;41907;47.848;9.000;2022-09-09T01:00:23;95533.19;;;11.90;100.00
56038;BME280;41907;47.848;9.000;2022-09-09T01:02:53;95539.47;;;11.95;100.00
56038;BME280;41907;47.848;9.000;2022-09-09T01:07:57;95531.22;;;12.08;100.00
56038;BME280;41907;47.848;9.000;2022-09-09T01:10:48;95532.16;;;12.12;100.00
56038;BME280;41907;47.848;9.000;2022-09-09T01:13:22;95520.25;;;12.01;100.00
56038;BME280;41907;47.848;9.000;2022-09-09T01:15:50;95513.06;;;11.93;100.00
56038;BME280;41907;47.848;9.000;2022-09-09T01:18:20;95520.59;;;11.91;100.00
56038;BME280;41907;47.848;9.000;2022-09-09T01:20:55;95516.03;;;11.91;100.00
56038;BME280;41907;47.848;9.000;2022-09-09T01:23:38;95511.38;;;11.88;100.00
56038;BME280;41907;47.848;9.000;2022-09-09T01:28:50;95519.25;;;12.14;100.00
56038;BME280;41907;47.848;9.000;2022-09-09T01:31:27;95518.91;;;12.24;100.00
56038;BME280;41907;47.848;9.000;2022-09-09T01:33:54;95516.28;;;12.16;100.00
56038;BME280;41907;47.848;9.000;2022-09-09T01:36:31;95518.75;;;12.21;100.00
56038;BME280;41907;47.848;9.000;2022-09-09T01:39:01;95527.94;;;12.41;100.00
56038;BME280;41907;47.848;9.000;2022-09-09T01:41:26;95528.97;;;12.48;100.00
56038;BME280;41907;47.848;9.000;2022-09-09T01:43:53;95531.91;;;12.55;100.00
56038;BME280;41907;47.848;9.000;2022-09-09T01:46:21;95527.97;;;12.61;100.00
56038;BME280;41907;47.848;9.000;2022-09-09T01:48:47;95524.44;;;12.70;100.00
56038;BME280;41907;47.848;9.000;2022-09-09T01:51:13;95523.81;;;12.73;100.00
56038;BME280;41907;47.848;9.000;2022-09-09T01:53:41;95515.88;;;12.76;100.00
56038;BME280;41907;47.848;9.000;2022-09-09T02:01:32;95516.56;;;12.73;100.00
56038;BME280;41907;47.848;9.000;2022-09-09T02:04:08;95524.03;;;12.59;100.00
56038;BME280;41907;47.848;9.000;2022-09-09T02:06:39;95523.72;;;12.60;100.00
56038;BME280;41907;47.848;9.000;2022-09-09T02:09:07;95529.53;;;12.62;100.00
56038;BME280;41907;47.848;9.000;2022-09-09T02:11:35;95537.66;;;12.66;100.00
56038;BME280;41907;47.848;9.000;2022-09-09T02:14:32;95533.03;;;12.54;100.00
56038;BME280;41907;47.848;9.000;2022-09-09T02:17:05;95532.06;;;12.59;100.00
56038;BME280;41907;47.848;9.000;2022-09-09T02:19:36;95542.00;;;12.79;100.00
56038;BME280;41907;47.848;9.000;2022-09-09T02:22:03;95540.75;;;12.77;100.00
56038;BME280;41907;47.848;9.000;2022-09-09T02:24:32;95545.16;;;12.81;100.00
56038;BME280;41907;47.848;9.000;2022-09-09T02:27:01;95549.97;;;12.88;100.00
56038;BME280;41907;47.848;9.000;2022-09-09T02:29:33;95552.78;;;12.91;100.00
56038;BME280;41907;47.848;9.000;2022-09-09T02:32:03;95547.69;;;12.98;100.00
56038;BME280;41907;47.848;9.000;2022-09-09T02:34:33;95541.03;;;13.04;100.00
56038;BME280;41907;47.848;9.000;2022-09-09T02:37:01;95540.44;;;12.99;100.00
56038;BME280;41907;47.848;9.000;2022-09-09T02:39:28;95551.47;;;12.97;100.00
56038;BME280;41907;47.848;9.000;2022-09-09T02:41:53;95547.09;;;12.93;100.00
56038;BME280;41907;47.848;9.000;2022-09-09T02:44:19;95552.19;;;13.07;100.00
56038;BME280;41907;47.848;9.000;2022-09-09T02:49:25;95547.09;;;12.93;100.00
56038;BME280;41907;47.848;9.000;2022-09-09T02:52:14;95543.19;;;12.90;100.00
56038;BME280;41907;47.848;9.000;2022-09-09T02:54:44;95535.88;;;12.79;100.00
56038;BME280;41907;47.848;9.000;2022-09-09T02:57:22;95530.06;;;12.77;100.00
56038;BME280;41907;47.848;9.000;2022-09-09T02:59:49;95532.25;;;12.75;100.00
56038;BME280;41907;47.848;9.000;2022-09-09T03:02:15;95545.97;;;12.94;100.00
56038;BME280;41907;47.848;9.000;2022-09-09T03:04:41;95556.38;;;12.95;100.00
56038;BME280;41907;47.848;9.000;2022-09-09T03:07:09;95559.28;;;13.02;100.00
56038;BME280;41907;47.848;9.000;2022-09-09T03:09:35;95558.06;;;13.00;100.00
56038;BME280;41907;47.848;9.000;2022-09-09T03:12:00;95552.97;;;13.07;100.00
56038;BME280;41907;47.848;9.000;2022-09-09T03:14:25;95566.16;;;13.12;100.00
56038;BME280;41907;47.848;9.000;2022-09-09T03:16:52;95574.81;;;13.18;100.00
56038;BME280;41907;47.848;9.000;2022-09-09T03:19:17;95575.72;;;13.22;100.00
56038;BME280;41907;47.848;9.000;2022-09-09T03:21:44;95569.63;;;13.13;100.00
56038;BME280;41907;47.848;9.000;2022-09-09T03:24:10;95570.78;;;13.03;100.00
56038;BME280;41907;47.848;9.000;2022-09-09T03:26:35;95577.22;;;13.11;100.00
56038;BME280;41907;47.848;9.000;2022-09-09T03:29:00;95569.72;;;13.25;100.00
56038;BME280;41907;47.848;9.000;2022-09-09T03:31:26;95573.25;;;13.17;100.00
56038;BME280;41907;47.848;9.000;2022-09-09T03:33:55;95580.28;;;13.21;100.00
56038;BME280;41907;47.848;9.000;2022-09-09T03:36:20;95569.38;;;13.05;100.00
56038;BME280;41907;47.848;9.000;2022-09-09T03:38:46;95572.47;;;13.16;100.00
56038;BME280;41907;47.848;9.000;2022-09-09T03:41:11;95569.09;;;12.98;100.00
56038;BME280;41907;47.848;9.000;2022-09-09T03:43:37;95569.28;;;12.93;100.00
56038;BME280;41907;47.848;9.000;2022-09-09T03:46:03;95557.00;;;13.13;100.00
56038;BME280;41907;47.848;9.000;2022-09-09T03:48:28;95559.81;;;12.96;100.00
56038;BME280;41907;47.848;9.000;2022-09-09T03:50:54;95559.19;;;12.99;100.00
56038;BME280;41907;47.848;9.000;2022-09-09T03:53:22;95572.16;;;13.18;100.00
56038;BME280;41907;47.848;9.000;2022-09-09T03:55:50;95558.00;;;13.09;100.00
56038;BME280;41907;47.848;9.000;2022-09-09T03:58:17;95581.97;;;13.05;100.00
56038;BME280;41907;47.848;9.000;2022-09-09T04:00:53;95579.38;;;13.17;100.00
56038;BME280;41907;47.848;9.000;2022-09-09T04:03:18;95575.47;;;13.15;100.00
56038;BME280;41907;47.848;9.000;2022-09-09T04:05:44;95581.09;;;13.13;100.00
56038;BME280;41907;47.848;9.000;2022-09-09T04:08:09;95581.44;;;13.20;100.00
56038;BME280;41907;47.848;9.000;2022-09-09T04:10:36;95579.00;;;13.27;100.00
56038;BME280;41907;47.848;9.000;2022-09-09T04:13:05;95578.75;;;13.20;100.00
56038;BME280;41907;47.848;9.000;2022-09-09T04:15:31;95584.59;;;13.34;100.00
56038;BME280;41907;47.848;9.000;2022-09-09T04:17:57;95581.75;;;13.39;100.00
56038;BME280;41907;47.848;9.000;2022-09-09T04:20:23;95572.22;;;13.30;100.00
56038;BME280;41907;47.848;9.000;2022-09-09T04:22:48;95572.16;;;13.18;100.00
56038;BME280;41907;47.848;9.000;2022-09-09T04:25:14;95571.53;;;13.33;100.00
56038;BME280;41907;47.848;9.000;2022-09-09T04:27:39;95565.16;;;13.25;100.00
56038;BME280;41907;47.848;9.000;2022-09-09T04:30:05;95562.91;;;13.07;100.00
56038;BME280;41907;47.848;9.000;2022-09-09T04:32:33;95569.25;;;13.02;100.00
56038;BME280;41907;47.848;9.000;2022-09-09T04:34:58;95561.91;;;13.20;100.00
56038;BME280;41907;47.848;9.000;2022-09-09T04:37:23;95571.53;;;13.33;100.00
56038;BME280;41907;47.848;9.000;2022-09-09T04:39:50;95562.84;;;13.36;100.00
56038;BME280;41907;47.848;9.000;2022-09-09T04:42:15;95572.38;;;13.46;100.00
56038;BME280;41907;47.848;9.000;2022-09-09T04:44:43;95570.94;;;13.48;100.00
56038;BME280;41907;47.848;9.000;2022-09-09T04:47:09;95577.41;;;13.47;100.00
56038;BME280;41907;47.848;9.000;2022-09-09T04:49:35;95574.41;;;13.49;100.00
56038;BME280;41907;47.848;9.000;2022-09-09T04:52:02;95580.19;;;13.51;100.00
56038;BME280;41907;47.848;9.000;2022-09-09T04:54:28;95591.50;;;13.56;100.00
56038;BME280;41907;47.848;9.000;2022-09-09T04:56:54;95591.19;;;13.58;100.00
56038;BME280;41907;47.848;9.000;2022-09-09T04:59:20;95591.63;;;13.60;100.00
56038;BME280;41907;47.848;9.000;2022-09-09T05:01:47;95588.69;;;13.53;100.00
56038;BME280;41907;47.848;9.000;2022-09-09T05:04:12;95584.81;;;13.62;100.00
56038;BME280;41907;47.848;9.000;2022-09-09T05:06:38;95588.09;;;13.68;100.00
56038;BME280;41907;47.848;9.000;2022-09-09T05:09:03;95583.16;;;13.70;100.00
56038;BME280;41907;47.848;9.000;2022-09-09T05:11:30;95573.91;;;13.67;100.00
56038;BME280;41907;47.848;9.000;2022-09-09T05:13:57;95575.25;;;13.73;100.00
56038;BME280;41907;47.848;9.000;2022-09-09T05:16:23;95571.25;;;13.79;100.00
56038;BME280;41907;47.848;9.000;2022-09-09T05:18:49;95567.78;;;13.79;100.00
56038;BME280;41907;47.848;9.000;2022-09-09T05:21:17;95567.59;;;13.84;100.00
56038;BME280;41907;47.848;9.000;2022-09-09T05:23:44;95569.16;;;13.85;100.00
56038;BME280;41907;47.848;9.000;2022-09-09T05:26:13;95572.63;;;13.86;100.00
56038;BME280;41907;47.848;9.000;2022-09-09T05:28:39;95571.84;;;13.85;100.00
56038;BME280;41907;47.848;9.000;2022-09-09T05:31:08;95571.50;;;13.87;100.00
56038;BME280;41907;47.848;9.000;2022-09-09T05:33:36;95578.31;;;13.84;100.00
56038;BME280;41907;47.848;9.000;2022-09-09T05:36:03;95575.63;;;13.84;100.00
56038;BME280;41907;47.848;9.000;2022-09-09T05:38:30;95582.44;;;13.82;100.00
56038;BME280;41907;47.848;9.000;2022-09-09T05:40:55;95591.72;;;13.84;100.00
56038;BME280;41907;47.848;9.000;2022-09-09T05:43:22;95584.22;;;13.90;100.00
56038;BME280;41907;47.848;9.000;2022-09-09T05:45:48;95584.38;;;13.93;100.00
56038;BME280;41907;47.848;9.000;2022-09-09T05:48:23;95599.56;;;14.01;100.00
56038;BME280;41907;47.848;9.000;2022-09-09T05:50:52;95593.72;;;14.44;100.00
56038;BME280;41907;47.848;9.000;2022-09-09T05:53:19;95589.03;;;15.30;100.00
56038;BME280;41907;47.848;9.000;2022-09-09T05:55:44;95583.22;;;16.27;100.00
56038;BME280;41907;47.848;9.000;2022-09-09T05:58:10;95577.16;;;15.87;100.00
56038;BME280;41907;47.848;9.000;2022-09-09T06:00:36;95584.78;;;18.52;96.86
56038;BME280;41907;47.848;9.000;2022-09-09T06:03:02;95591.16;;;18.86;90.08
56038;BME280;41907;47.848;9.000;2022-09-09T06:05:29;95595.38;;;18.61;92.80
56038;BME280;41907;47.848;9.000;2022-09-09T06:07:54;95600.34;;;17.56;96.97
56038;BME280;41907;47.848;9.000;2022-09-09T06:10:20;95599.53;;;16.82;100.00
56038;BME280;41907;47.848;9.000;2022-09-09T06:12:45;95610.28;;;16.34;100.00
56038;BME280;41907;47.848;9.000;2022-09-09T06:15:10;95606.31;;;16.28;100.00
56038;BME280;41907;47.848;9.000;2022-09-09T06:17:36;95608.53;;;16.89;100.00
56038;BME280;41907;47.848;9.000;2022-09-09T06:20:02;95608.50;;;19.12;94.05
56038;BME280;41907;47.848;9.000;2022-09-09T06:22:27;95612.19;;;21.15;79.90
56038;BME280;41907;47.848;9.000;2022-09-09T06:24:53;95613.69;;;20.17;82.32
56038;BME280;41907;47.848;9.000;2022-09-09T06:27:18;95608.47;;;20.83;77.97
56038;BME280;41907;47.848;9.000;2022-09-09T06:29:44;95615.16;;;21.50;76.28
56038;BME280;41907;47.848;9.000;2022-09-09T06:32:09;95610.72;;;23.64;66.31
56038;BME280;41907;47.848;9.000;2022-09-09T06:34:34;95610.59;;;24.65;60.79
56038;BME280;41907;47.848;9.000;2022-09-09T06:37:01;95603.75;;;24.43;61.44
56038;BME280;41907;47.848;9.000;2022-09-09T06:39:27;95606.41;;;25.80;55.82
56038;BME280;41907;47.848;9.000;2022-09-09T06:41:52;95617.81;;;26.36;55.62
56038;BME280;41907;47.848;9.000;2022-09-09T06:44:18;95615.31;;;27.22;52.49
56038;BME280;41907;47.848;9.000;2022-09-09T06:46:44;95613.72;;;25.90;53.29
56038;BME280;41907;47.848;9.000;2022-09-09T06:49:13;95620.50;;;23.36;62.30
56038;BME280;41907;47.848;9.000;2022-09-09T06:51:38;95622.75;;;22.10;67.22
56038;BME280;41907;47.848;9.000;2022-09-09T06:54:08;95619.25;;;21.27;70.52
56038;BME280;41907;47.848;9.000;2022-09-09T06:56:36;95620.56;;;20.45;74.97
56038;BME280;41907;47.848;9.000;2022-09-09T06:59:03;95622.06;;;19.45;80.45
56038;BME280;41907;47.848;9.000;2022-09-09T07:01:32;95625.22;;;19.21;83.88
56038;BME280;41907;47.848;9.000;2022-09-09T07:03:58;95620.03;;;19.65;83.69
56038;BME280;41907;47.848;9.000;2022-09-09T07:06:32;95627.25;;;19.54;84.33
56038;BME280;41907;47.848;9.000;2022-09-09T07:08:59;95620.00;;;19.35;83.60
56038;BME280;41907;47.848;9.000;2022-09-09T07:11:28;95633.28;;;18.91;86.18
56038;BME280;41907;47.848;9.000;2022-09-09T07:13:54;95634.94;;;18.99;87.44
56038;BME280;41907;47.848;9.000;2022-09-09T07:16:21;95630.28;;;23.02;70.20
56038;BME280;41907;47.848;9.000;2022-09-09T07:18:50;95627.47;;;25.46;59.18
56038;BME280;41907;47.848;9.000;2022-09-09T07:21:16;95635.47;;;25.98;55.73
56038;BME280;41907;47.848;9.000;2022-09-09T07:23:42;95633.19;;;26.80;52.54
56038;BME280;41907;47.848;9.000;2022-09-09T07:26:15;95639.78;;;27.33;50.91
56038;BME280;41907;47.848;9.000;2022-09-09T07:28:42;95638.41;;;28.43;49.74
56038;BME280;41907;47.848;9.000;2022-09-09T07:31:13;95641.38;;;29.66;46.26
56038;BME280;41907;47.848;9.000;2022-09-09T07:33:41;95642.44;;;28.75;46.44
56038;BME280;41907;47.848;9.000;2022-09-09T07:36:09;95636.16;;;27.83;49.74
56038;BME280;41907;47.848;9.000;2022-09-09T07:38:43;95642.66;;;28.64;45.98
56038;BME280;41907;47.848;9.000;2022-09-09T07:41:12;95638.59;;;29.05;44.98
56038;BME280;41907;47.848;9.000;2022-09-09T07:43:41;95640.91;;;29.22;45.36
56038;BME280;41907;47.848;9.000;2022-09-09T07:46:08;95636.16;;;30.01;41.75
56038;BME280;41907;47.848;9.000;2022-09-09T07:48:34;95648.13;;;30.61;42.42
56038;BME280;41907;47.848;9.000;2022-09-09T07:51:22;95645.81;;;31.23;38.51
56038;BME280;41907;47.848;9.000;2022-09-09T07:53:51;95651.31;;;30.05;41.57
56038;BME280;41907;47.848;9.000;2022-09-09T07:56:18;95639.63;;;28.03;45.40
56038;BME280;41907;47.848;9.000;2022-09-09T07:58:47;95634.03;;;29.31;43.27
56038;BME280;41907;47.848;9.000;2022-09-09T08:01:22;95638.50;;;29.41;41.54
56038;BME280;41907;47.848;9.000;2022-09-09T08:03:54;95636.63;;;28.89;42.85
56038;BME280;41907;47.848;9.000;2022-09-09T08:06:20;95637.19;;;30.45;40.31
56038;BME280;41907;47.848;9.000;2022-09-09T08:08:49;95645.06;;;30.72;40.43
56038;BME280;41907;47.848;9.000;2022-09-09T08:11:15;95653.94;;;29.35;42.58
56038;BME280;41907;47.848;9.000;2022-09-09T08:13:42;95643.72;;;29.96;41.59
56038;BME280;41907;47.848;9.000;2022-09-09T08:16:16;95655.63;;;28.28;45.67
56038;BME280;41907;47.848;9.000;2022-09-09T08:18:42;95653.41;;;27.36;46.46
56038;BME280;41907;47.848;9.000;2022-09-09T08:21:13;95660.13;;;25.12;53.31
56038;BME280;41907;47.848;9.000;2022-09-09T08:23:40;95647.59;;;23.90;58.19
56038;BME280;41907;47.848;9.000;2022-09-09T08:26:13;95658.69;;;24.38;58.48
56038;BME280;41907;47.848;9.000;2022-09-09T08:28:40;95659.31;;;23.69;59.77
56038;BME280;41907;47.848;9.000;2022-09-09T08:31:17;95657.06;;;22.75;63.40
56038;BME280;41907;47.848;9.000;2022-09-09T08:33:43;95663.22;;;22.65;65.38
56038;BME280;41907;47.848;9.000;2022-09-09T08:36:12;95653.97;;;22.91;66.15
56038;BME280;41907;47.848;9.000;2022-09-09T08:38:38;95666.31;;;22.49;66.11
56038;BME280;41907;47.848;9.000;2022-09-09T08:43:48;95660.97;;;22.92;67.58
56038;BME280;41907;47.848;9.000;2022-09-09T08:46:26;95647.00;;;24.41;60.29
56038;BME280;41907;47.848;9.000;2022-09-09T08:49:02;95644.84;;;26.30;52.31
56038;BME280;41907;47.848;9.000;2022-09-09T08:51:32;95652.66;;;27.99;50.32
56038;BME280;41907;47.848;9.000;2022-09-09T08:54:00;95651.81;;;28.22;48.70
56038;BME280;41907;47.848;9.000;2022-09-09T08:56:27;95645.22;;;27.80;48.41
56038;BME280;41907;47.848;9.000;2022-09-09T08:58:56;95658.13;;;25.98;50.30
56038;BME280;41907;47.848;9.000;2022-09-09T09:11:58;95646.59;;;27.68;47.00
56038;BME280;41907;47.848;9.000;2022-09-09T09:14:29;95635.59;;;28.99;42.43
56038;BME280;41907;47.848;9.000;2022-09-09T09:17:04;95649.47;;;29.86;39.52
56038;BME280;41907;47.848;9.000;2022-09-09T09:19:33;95645.38;;;30.07;40.17
56038;BME280;41907;47.848;9.000;2022-09-09T09:22:14;95642.81;;;29.42;38.83
56038;BME280;41907;47.848;9.000;2022-09-09T09:27:35;95646.41;;;30.25;38.47
56038;BME280;41907;47.848;9.000;2022-09-09T09:30:12;95636.06;;;30.29;37.59
56038;BME280;41907;47.848;9.000;2022-09-09T09:32:41;95641.19;;;30.02;39.73
56038;BME280;41907;47.848;9.000;2022-09-09T09:35:12;95645.34;;;30.48;39.84
56038;BME280;41907;47.848;9.000;2022-09-09T09:37:40;95632.41;;;30.20;36.91
56038;BME280;41907;47.848;9.000;2022-09-09T09:40:20;95637.72;;;29.08;39.67
56038;BME280;41907;47.848;9.000;2022-09-09T09:42:52;95644.88;;;26.57;44.96
56038;BME280;41907;47.848;9.000;2022-09-09T09:45:31;95641.81;;;26.52;46.20
56038;BME280;41907;47.848;9.000;2022-09-09T09:48:09;95631.28;;;26.20;47.93
56038;BME280;41907;47.848;9.000;2022-09-09T09:50:47;95637.13;;;25.54;50.09
56038;BME280;41907;47.848;9.000;2022-09-09T09:53:34;95638.38;;;24.46;52.49
56038;BME280;41907;47.848;9.000;2022-09-09T09:56:03;95643.25;;;25.28;54.02
56038;BME280;41907;47.848;9.000;2022-09-09T09:58:33;95638.91;;;25.30;51.16
56038;BME280;41907;47.848;9.000;2022-09-09T10:01:03;95630.41;;;26.30;48.97
56038;BME280;41907;47.848;9.000;2022-09-09T10:03:30;95634.91;;;25.79;50.02
56038;BME280;41907;47.848;9.000;2022-09-09T10:05:56;95635.44;;;24.81;52.48
56038;BME280;41907;47.848;9.000;2022-09-09T10:08:24;95625.41;;;23.95;53.74
56038;BME280;41907;47.848;9.000;2022-09-09T10:17:01;95641.81;;;22.28;59.61
56038;BME280;41907;47.848;9.000;2022-09-09T10:19:34;95617.38;;;22.39;59.56
56038;BME280;41907;47.848;9.000;2022-09-09T10:22:26;95619.72;;;23.57;56.85
56038;BME280;41907;47.848;9.000;2022-09-09T10:36:23;95610.00;;;22.28;55.25
56038;BME280;41907;47.848;9.000;2022-09-09T10:38:58;95615.38;;;22.11;57.61
56038;BME280;41907;47.848;9.000;2022-09-09T10:44:20;95617.34;;;22.21;56.63
56038;BME280;41907;47.848;9.000;2022-09-09T10:52:15;95597.97;;;22.47;52.58
56038;BME280;41907;47.848;9.000;2022-09-09T10:55:07;95611.53;;;22.15;54.76
56038;BME280;41907;47.848;9.000;2022-09-09T10:57:42;95608.38;;;21.99;54.55
56038;BME280;41907;47.848;9.000;2022-09-09T11:00:18;95612.78;;;21.42;52.06
56038;BME280;41907;47.848;9.000;2022-09-09T11:02:48;95610.75;;;21.28;54.88
56038;BME280;41907;47.848;9.000;2022-09-09T11:08:21;95610.63;;;21.14;56.08
56038;BME280;41907;47.848;9.000;2022-09-09T11:11:04;95609.06;;;21.78;56.63
56038;BME280;41907;47.848;9.000;2022-09-09T11:21:43;95610.56;;;21.03;55.04
56038;BME280;41907;47.848;9.000;2022-09-09T11:24:16;95602.78;;;20.98;53.61
56038;BME280;41907;47.848;9.000;2022-09-09T11:26:51;95609.66;;;20.85;55.38
56038;BME280;41907;47.848;9.000;2022-09-09T11:40:26;95593.16;;;21.08;55.41
56038;BME280;41907;47.848;9.000;2022-09-09T11:43:12;95584.69;;;21.96;52.24
56038;BME280;41907;47.848;9.000;2022-09-09T11:45:40;95590.22;;;22.35;52.30
56038;BME280;41907;47.848;9.000;2022-09-09T11:48:26;95579.69;;;22.12;52.77
56038;BME280;41907;47.848;9.000;2022-09-09T11:50:58;95584.72;;;22.10;50.92
56038;BME280;41907;47.848;9.000;2022-09-09T11:53:24;95582.47;;;22.51;50.64
56038;BME280;41907;47.848;9.000;2022-09-09T11:56:08;95576.59;;;23.13;51.80
56038;BME280;41907;47.848;9.000;2022-09-09T11:58:40;95578.88;;;23.43;50.67
56038;BME280;41907;47.848;9.000;2022-09-09T12:01:15;95566.56;;;22.89;53.32
56038;BME280;41907;47.848;9.000;2022-09-09T12:03:52;95563.81;;;22.99;51.83
56038;BME280;41907;47.848;9.000;2022-09-09T12:06:31;95569.59;;;23.26;50.35
56038;BME280;41907;47.848;9.000;2022-09-09T12:09:06;95568.84;;;23.15;48.16
56038;BME280;41907;47.848;9.000;2022-09-09T12:11:33;95556.00;;;23.19;48.54
56038;BME280;41907;47.848;9.000;2022-09-09T12:14:00;95566.47;;;23.31;50.37
56038;BME280;41907;47.848;9.000;2022-09-09T12:16:37;95562.66;;;23.00;49.13
56038;BME280;41907;47.848;9.000;2022-09-09T12:24:10;95560.72;;;23.12;51.06
56038;BME280;41907;47.848;9.000;2022-09-09T12:29:43;95571.97;;;22.32;52.28
56038;BME280;41907;47.848;9.000;2022-09-09T12:32:19;95562.28;;;22.45;50.65
56038;BME280;41907;47.848;9.000;2022-09-09T12:34:55;95552.19;;;22.85;52.19
56038;BME280;41907;47.848;9.000;2022-09-09T12:37:52;95554.88;;;22.99;52.10
56038;BME280;41907;47.848;9.000;2022-09-09T12:40:29;95546.34;;;22.86;50.60
56038;BME280;41907;47.848;9.000;2022-09-09T12:42:56;95544.75;;;23.03;51.43
56038;BME280;41907;47.848;9.000;2022-09-09T12:45:24;95542.50;;;22.80;52.51
56038;BME280;41907;47.848;9.000;2022-09-09T12:48:03;95548.28;;;23.00;50.69
56038;BME280;41907;47.848;9.000;2022-09-09T12:50:32;95538.56;;;22.99;49.87
56038;BME280;41907;47.848;9.000;2022-09-09T12:53:22;95535.88;;;22.92;51.76
56038;BME280;41907;47.848;9.000;2022-09-09T12:55:54;95541.28;;;22.74;53.73
56038;BME280;41907;47.848;9.000;2022-09-09T12:58:21;95532.38;;;22.70;54.83
56038;BME280;41907;47.848;9.000;2022-09-09T13:00:54;95531.22;;;22.50;52.44
56038;BME280;41907;47.848;9.000;2022-09-09T13:03:23;95528.47;;;22.68;54.65
56038;BME280;41907;47.848;9.000;2022-09-09T13:05:50;95525.00;;;22.78;55.23
56038;BME280;41907;47.848;9.000;2022-09-09T13:08:17;95521.47;;;23.02;54.07
56038;BME280;41907;47.848;9.000;2022-09-09T13:13:27;95520.31;;;22.99;49.31
56038;BME280;41907;47.848;9.000;2022-09-09T13:15:59;95515.69;;;22.82;50.05
56038;BME280;41907;47.848;9.000;2022-09-09T13:18:36;95507.53;;;22.64;50.49
56038;BME280;41907;47.848;9.000;2022-09-09T13:21:03;95515.69;;;22.36;51.35
56038;BME280;41907;47.848;9.000;2022-09-09T13:23:34;95508.31;;;22.61;51.85
56038;BME280;41907;47.848;9.000;2022-09-09T13:26:26;95504.41;;;22.73;51.83
56038;BME280;41907;47.848;9.000;2022-09-09T13:28:52;95507.09;;;22.98;51.32
56038;BME280;41907;47.848;9.000;2022-09-09T13:31:24;95501.31;;;22.82;51.50
56038;BME280;41907;47.848;9.000;2022-09-09T13:33:52;95493.16;;;22.64;50.54
56038;BME280;41907;47.848;9.000;2022-09-09T13:36:28;95501.31;;;22.82;51.45
56038;BME280;41907;47.848;9.000;2022-09-09T13:38:56;95498.59;;;22.82;53.43
56038;BME280;41907;47.848;9.000;2022-09-09T13:41:23;95498.19;;;22.73;50.65
56038;BME280;41907;47.848;9.000;2022-09-09T13:43:50;95500.53;;;22.78;51.34
56038;BME280;41907;47.848;9.000;2022-09-09T13:46:36;95495.47;;;22.90;48.81
56038;BME280;41907;47.848;9.000;2022-09-09T13:49:17;95497.78;;;22.99;46.94
56038;BME280;41907;47.848;9.000;2022-09-09T13:51:45;95479.44;;;23.17;46.64
56038;BME280;41907;47.848;9.000;2022-09-09T13:54:13;95487.19;;;23.22;45.64
56038;BME280;41907;47.848;9.000;2022-09-09T13:56:40;95485.75;;;22.89;44.95
56038;BME280;41907;47.848;9.000;2022-09-09T13:59:14;95488.84;;;22.88;45.01
56038;BME280;41907;47.848;9.000;2022-09-09T14:01:40;95475.59;;;23.04;47.02
56038;BME280;41907;47.848;9.000;2022-09-09T14:04:06;95467.06;;;22.95;44.59
56038;BME280;41907;47.848;9.000;2022-09-09T14:06:32;95471.41;;;22.82;45.84
56038;BME280;41907;47.848;9.000;2022-09-09T14:09:00;95467.91;;;22.60;45.50
56038;BME280;41907;47.848;9.000;2022-09-09T14:11:25;95474.16;;;22.25;46.62
56038;BME280;41907;47.848;9.000;2022-09-09T14:13:50;95476.03;;;21.92;47.85
56038;BME280;41907;47.848;9.000;2022-09-09T14:16:17;95478.78;;;21.96;47.89
56038;BME280;41907;47.848;9.000;2022-09-09T14:18:46;95477.25;;;22.06;46.35
56038;BME280;41907;47.848;9.000;2022-09-09T14:21:11;95469.91;;;22.17;46.88
56038;BME280;41907;47.848;9.000;2022-09-09T14:23:37;95471.03;;;22.19;46.87
56038;BME280;41907;47.848;9.000;2022-09-09T14:26:04;95471.03;;;22.37;49.69
56038;BME280;41907;47.848;9.000;2022-09-09T14:28:29;95474.16;;;22.21;49.25
56038;BME280;41907;47.848;9.000;2022-09-09T14:30:54;95481.53;;;22.14;48.19
56038;BME280;41907;47.848;9.000;2022-09-09T14:33:20;95484.22;;;22.00;48.36
56038;BME280;41907;47.848;9.000;2022-09-09T14:35:46;95472.59;;;21.99;47.59
56038;BME280;41907;47.848;9.000;2022-09-09T14:38:11;95476.47;;;22.09;48.68
56038;BME280;41907;47.848;9.000;2022-09-09T14:40:37;95476.84;;;21.97;48.56
56038;BME280;41907;47.848;9.000;2022-09-09T14:43:04;95490.75;;;21.81;49.37
56038;BME280;41907;47.848;9.000;2022-09-09T14:45:30;95498.09;;;21.66;50.18
56038;BME280;41907;47.848;9.000;2022-09-09T14:47:56;95497.63;;;21.43;48.46
56038;BME280;41907;47.848;9.000;2022-09-09T14:50:22;95509.28;;;21.40;49.34
56038;BME280;41907;47.848;9.000;2022-09-09T14:52:48;95502.66;;;21.30;48.90
56038;BME280;41907;47.848;9.000;2022-09-09T14:55:14;95503.00;;;21.25;48.13
56038;BME280;41907;47.848;9.000;2022-09-09T14:57:40;95501.47;;;21.28;49.55